Time;durP1;ratioP1;P1;durP2;ratioP2;P2;SDS_P1;SDS_P2;PMS_P1;PMS_P2;Temp;Humidity;BMP_temperature;BMP_pressure;BME280_temperature;BME280_humidity;BME280_pressure;Samples;Min_cycle;Max_cycle;Signal;HPM_P1;HPM_P2
2021/12/20 00:00:18;;;;;;;3.27;1.30;;;3.40;99.90;;;;;;5072105;28;20255;-70
2021/12/20 00:02:48;;;;;;;2.60;1.37;;;3.40;99.90;;;;;;5072915;28;20235;-71
2021/12/20 00:05:16;;;;;;;3.50;1.47;;;3.40;99.90;;;;;;5074537;28;20263;-71
2021/12/20 00:07:43;;;;;;;2.13;1.07;;;3.40;99.90;;;;;;5073335;28;20213;-71
2021/12/20 00:10:12;;;;;;;4.13;1.17;;;3.40;99.90;;;;;;5071230;28;20259;-71
2021/12/20 00:12:39;;;;;;;1.93;1.60;;;3.50;99.90;;;;;;5073039;28;20213;-70
2021/12/20 00:15:07;;;;;;;3.27;1.50;;;3.50;99.90;;;;;;5071987;28;20205;-70
2021/12/20 00:17:35;;;;;;;2.00;1.00;;;3.50;99.90;;;;;;5071022;28;20219;-71
2021/12/20 00:20:02;;;;;;;1.03;0.70;;;3.50;99.90;;;;;;5071980;28;20223;-71
2021/12/20 00:22:29;;;;;;;5.37;1.60;;;3.50;99.90;;;;;;5072707;28;20245;-70
2021/12/20 00:24:56;;;;;;;2.57;1.43;;;3.50;99.90;;;;;;5071877;28;20268;-70
2021/12/20 00:27:24;;;;;;;4.63;1.17;;;3.50;99.90;;;;;;5070336;28;20292;-70
2021/12/20 00:29:51;;;;;;;1.93;1.20;;;3.50;99.90;;;;;;5070352;28;20288;-69
2021/12/20 00:32:20;;;;;;;4.57;1.43;;;3.50;99.90;;;;;;5081662;28;20245;-70
2021/12/20 00:34:47;;;;;;;3.73;1.30;;;3.40;99.90;;;;;;5071537;28;20609;-70
2021/12/20 00:42:41;;;;;;;2.33;1.27;;;3.40;99.90;;;;;;5072423;28;20212;-67
2021/12/20 00:45:10;;;;;;;4.37;1.37;;;3.40;99.90;;;;;;5072919;28;20275;-68
2021/12/20 00:47:37;;;;;;;2.63;1.20;;;3.40;99.90;;;;;;5086433;28;20754;-67
2021/12/20 00:50:06;;;;;;;3.07;1.23;;;3.40;99.90;;;;;;5072809;28;20250;-68
2021/12/20 00:52:32;;;;;;;2.13;1.07;;;3.30;99.90;;;;;;5072058;28;20245;-68
2021/12/20 00:55:00;;;;;;;3.67;1.50;;;3.30;99.90;;;;;;5072642;28;20240;-68
2021/12/20 00:57:26;;;;;;;2.50;1.30;;;3.30;99.90;;;;;;5071721;28;20312;-69
2021/12/20 00:59:55;;;;;;;3.57;1.27;;;3.30;99.90;;;;;;5072494;28;20232;-68
2021/12/20 01:02:22;;;;;;;4.53;1.87;;;3.30;99.90;;;;;;5085813;28;20291;-67
2021/12/20 01:04:49;;;;;;;2.67;1.37;;;3.30;99.90;;;;;;5080475;28;20265;-67
2021/12/20 01:07:16;;;;;;;3.17;1.53;;;3.20;99.90;;;;;;5074328;28;20247;-67
2021/12/20 01:09:43;;;;;;;2.57;1.33;;;3.30;99.90;;;;;;5076147;28;20213;-68
2021/12/20 01:12:19;;;;;;;3.97;1.23;;;3.20;99.90;;;;;;5076031;28;20233;-68
2021/12/20 01:14:46;;;;;;;2.00;1.27;;;3.20;99.90;;;;;;5076248;28;20212;-67
2021/12/20 01:17:15;;;;;;;3.00;1.27;;;3.30;99.90;;;;;;5083344;28;20239;-68
2021/12/20 01:19:42;;;;;;;4.73;1.47;;;3.20;99.90;;;;;;5075539;28;20213;-68
2021/12/20 01:22:09;;;;;;;2.70;1.00;;;3.20;99.90;;;;;;5075075;28;20297;-68
2021/12/20 01:24:36;;;;;;;3.00;1.20;;;3.20;99.90;;;;;;5075204;28;20229;-68
2021/12/20 01:27:03;;;;;;;2.13;1.30;;;3.20;99.90;;;;;;5075303;28;20290;-68
2021/12/20 01:29:30;;;;;;;2.77;1.20;;;3.20;99.90;;;;;;5074967;28;20605;-68
2021/12/20 01:31:57;;;;;;;3.77;1.40;;;3.20;99.90;;;;;;5089856;28;20208;-68
2021/12/20 01:34:25;;;;;;;2.37;1.10;;;3.30;99.90;;;;;;5074845;28;20288;-67
2021/12/20 01:36:52;;;;;;;3.60;1.30;;;3.20;99.90;;;;;;5062973;28;20622;-67
2021/12/20 01:39:19;;;;;;;2.00;1.40;;;3.20;99.90;;;;;;5075895;28;20368;-69
2021/12/20 01:41:46;;;;;;;3.60;1.07;;;3.20;99.90;;;;;;5076003;28;20241;-68
2021/12/20 01:44:14;;;;;;;3.40;1.33;;;3.20;99.90;;;;;;5075949;28;20205;-68
2021/12/20 01:46:41;;;;;;;2.47;1.13;;;3.20;99.90;;;;;;5075148;28;20228;-68
2021/12/20 01:49:11;;;;;;;2.87;1.23;;;3.20;99.90;;;;;;5075361;28;20201;-68
2021/12/20 01:51:51;;;;;;;2.40;1.23;;;3.20;99.90;;;;;;5076878;28;20201;-68
2021/12/20 01:54:19;;;;;;;2.00;1.07;;;3.20;99.90;;;;;;5077551;28;20284;-67
2021/12/20 01:56:46;;;;;;;2.73;1.13;;;3.20;99.90;;;;;;5076419;28;20231;-68
2021/12/20 01:59:13;;;;;;;3.13;1.30;;;3.10;99.90;;;;;;5081272;28;20219;-67
2021/12/20 02:01:41;;;;;;;4.87;1.00;;;3.20;99.90;;;;;;5076603;28;20226;-68
2021/12/20 02:04:09;;;;;;;2.43;1.07;;;3.20;99.90;;;;;;5077633;28;20263;-68
2021/12/20 02:06:39;;;;;;;3.33;1.20;;;3.20;99.90;;;;;;5076358;28;20237;-68
2021/12/20 02:09:09;;;;;;;2.10;1.07;;;3.20;99.90;;;;;;5076946;28;20227;-68
2021/12/20 02:11:39;;;;;;;4.40;1.00;;;3.20;99.90;;;;;;5075897;28;20289;-68
2021/12/20 02:14:07;;;;;;;4.40;1.10;;;3.20;99.90;;;;;;5076051;28;20267;-68
2021/12/20 02:16:34;;;;;;;2.30;1.20;;;3.20;99.90;;;;;;5076782;28;20240;-68
2021/12/20 02:19:03;;;;;;;3.70;0.90;;;3.30;99.90;;;;;;5062270;28;20201;-67
2021/12/20 02:21:32;;;;;;;1.10;1.00;;;3.20;99.90;;;;;;5075915;28;20245;-68
2021/12/20 02:23:59;;;;;;;1.77;1.20;;;3.30;99.90;;;;;;5075191;28;20233;-68
2021/12/20 02:26:26;;;;;;;2.67;1.20;;;3.30;99.90;;;;;;5075505;28;20367;-67
2021/12/20 02:28:56;;;;;;;2.07;1.10;;;3.30;99.90;;;;;;5077955;28;20562;-67
2021/12/20 02:37:03;;;;;;;1.57;1.00;;;3.30;99.90;;;;;;5069935;28;20192;-68
2021/12/20 02:39:30;;;;;;;2.27;1.00;;;3.20;99.90;;;;;;5062674;28;20208;-68
2021/12/20 02:41:57;;;;;;;2.20;1.27;;;3.20;99.90;;;;;;5078600;28;20228;-68
2021/12/20 02:44:27;;;;;;;2.10;1.00;;;3.20;99.90;;;;;;5075382;28;20244;-68
2021/12/20 02:47:05;;;;;;;1.87;0.90;;;3.20;99.90;;;;;;5075576;28;20225;-67
2021/12/20 02:49:34;;;;;;;2.57;0.87;;;3.10;99.90;;;;;;5075853;28;20197;-68
2021/12/20 02:52:04;;;;;;;2.50;1.00;;;3.10;99.90;;;;;;5085380;28;20655;-67
2021/12/20 02:54:32;;;;;;;2.23;1.20;;;3.10;99.90;;;;;;5075831;28;20198;-67
2021/12/20 02:56:59;;;;;;;1.70;0.90;;;3.10;99.90;;;;;;5075302;28;20305;-68
2021/12/20 02:59:26;;;;;;;2.17;1.20;;;3.10;99.90;;;;;;5076092;28;20206;-67
2021/12/20 03:01:55;;;;;;;1.50;1.10;;;3.00;99.90;;;;;;5075443;28;20225;-68
2021/12/20 03:04:23;;;;;;;2.60;1.27;;;3.00;99.90;;;;;;5075831;28;20688;-68
2021/12/20 03:06:53;;;;;;;1.73;1.27;;;3.00;99.90;;;;;;5085114;28;20240;-69
2021/12/20 03:09:26;;;;;;;1.77;1.03;;;3.00;99.90;;;;;;5074614;28;20618;-68
2021/12/20 03:11:55;;;;;;;2.47;1.13;;;2.90;99.90;;;;;;5074997;28;20220;-68
2021/12/20 03:14:27;;;;;;;2.87;1.10;;;2.90;99.90;;;;;;5075278;28;20225;-67
2021/12/20 03:16:54;;;;;;;1.37;1.00;;;2.80;99.90;;;;;;5074616;28;20201;-67
2021/12/20 03:19:21;;;;;;;2.23;1.00;;;2.80;99.90;;;;;;5074609;28;20232;-67
2021/12/20 03:21:49;;;;;;;2.47;1.03;;;2.80;99.90;;;;;;5074106;28;20600;-68
2021/12/20 03:24:16;;;;;;;1.70;1.10;;;2.90;99.90;;;;;;5075139;28;20232;-67
2021/12/20 03:26:45;;;;;;;1.50;1.00;;;2.80;99.90;;;;;;5073198;28;20332;-68
2021/12/20 03:29:12;;;;;;;1.97;1.30;;;2.80;99.90;;;;;;5060445;28;20269;-68
2021/12/20 03:31:39;;;;;;;3.23;1.20;;;2.80;99.90;;;;;;5075088;28;20221;-67
2021/12/20 03:34:07;;;;;;;3.37;1.20;;;2.80;99.90;;;;;;5074507;28;20464;-67
2021/12/20 03:36:34;;;;;;;2.33;1.00;;;2.80;99.90;;;;;;5069703;28;20579;-68
2021/12/20 03:39:04;;;;;;;4.27;1.20;;;2.80;99.90;;;;;;5072508;28;20209;-68
2021/12/20 03:41:31;;;;;;;1.03;0.80;;;2.90;99.90;;;;;;5081044;28;20239;-68
2021/12/20 03:44:00;;;;;;;2.67;0.90;;;2.80;99.90;;;;;;5078843;28;20209;-67
2021/12/20 03:46:27;;;;;;;1.80;1.07;;;2.90;99.90;;;;;;5075271;28;20221;-67
2021/12/20 03:48:54;;;;;;;1.87;0.80;;;2.90;99.90;;;;;;5075024;28;20217;-68
2021/12/20 03:51:21;;;;;;;2.33;1.10;;;2.90;99.90;;;;;;5075216;28;20279;-68
2021/12/20 03:53:48;;;;;;;1.80;1.07;;;2.90;99.90;;;;;;5067560;28;20244;-68
2021/12/20 03:56:15;;;;;;;1.67;1.03;;;2.90;99.90;;;;;;5065322;28;20549;-68
2021/12/20 03:58:42;;;;;;;1.53;1.00;;;2.90;99.90;;;;;;5075422;28;20296;-68
2021/12/20 04:01:13;;;;;;;1.47;0.90;;;2.80;99.90;;;;;;5074043;28;20758;-67
2021/12/20 04:03:41;;;;;;;2.67;1.30;;;2.80;99.90;;;;;;5074531;28;20201;-68
2021/12/20 04:06:11;;;;;;;1.93;1.00;;;2.80;99.90;;;;;;5074370;28;20615;-68
2021/12/20 04:08:39;;;;;;;1.53;1.10;;;2.90;99.90;;;;;;5074254;28;20278;-68
2021/12/20 04:11:06;;;;;;;1.40;0.80;;;2.90;99.90;;;;;;5075607;28;20604;-68
2021/12/20 04:13:33;;;;;;;2.87;1.30;;;2.90;99.90;;;;;;5074955;28;20301;-68
2021/12/20 04:16:00;;;;;;;1.53;0.90;;;2.90;99.90;;;;;;5075558;28;20233;-67
2021/12/20 04:18:30;;;;;;;2.10;1.10;;;2.80;99.90;;;;;;5075385;28;20247;-67
2021/12/20 04:20:57;;;;;;;3.20;0.80;;;2.90;99.90;;;;;;5074886;28;20588;-68
2021/12/20 04:23:24;;;;;;;2.33;1.03;;;2.80;99.90;;;;;;5075302;28;20305;-68
2021/12/20 04:25:51;;;;;;;2.87;0.80;;;2.80;99.90;;;;;;5074367;28;20276;-68
2021/12/20 04:28:17;;;;;;;2.00;0.80;;;2.80;99.90;;;;;;5074711;28;20666;-67
2021/12/20 04:30:45;;;;;;;2.47;1.07;;;2.80;99.90;;;;;;5074418;28;20626;-67
2021/12/20 04:33:11;;;;;;;2.60;0.80;;;2.80;99.90;;;;;;5074493;28;20209;-69
2021/12/20 04:35:40;;;;;;;1.40;0.87;;;2.80;99.90;;;;;;5073497;28;20300;-68
2021/12/20 04:38:08;;;;;;;3.77;1.17;;;2.80;99.90;;;;;;5066128;28;20237;-67
2021/12/20 04:40:35;;;;;;;2.00;0.77;;;2.90;99.90;;;;;;5087794;28;20258;-67
2021/12/20 04:43:02;;;;;;;1.17;0.80;;;2.80;99.90;;;;;;5078304;28;20240;-67
2021/12/20 04:45:30;;;;;;;1.77;0.70;;;2.80;99.90;;;;;;5077474;28;20227;-67
2021/12/20 04:47:58;;;;;;;1.67;0.80;;;2.80;99.90;;;;;;5077348;28;20677;-67
2021/12/20 04:50:26;;;;;;;2.27;1.07;;;2.80;99.90;;;;;;5076234;28;20232;-68
2021/12/20 04:52:55;;;;;;;2.00;0.80;;;2.90;99.90;;;;;;5077445;28;20572;-67
2021/12/20 04:55:23;;;;;;;1.40;0.87;;;2.90;99.90;;;;;;5081923;28;20233;-67
2021/12/20 04:57:51;;;;;;;0.80;0.80;;;2.90;99.90;;;;;;5077767;28;20294;-69
2021/12/20 05:00:21;;;;;;;1.47;0.80;;;2.90;99.90;;;;;;5064790;28;20233;-67
2021/12/20 05:02:48;;;;;;;1.90;0.90;;;2.90;99.90;;;;;;5078823;28;20216;-67
2021/12/20 05:05:18;;;;;;;1.73;0.90;;;2.90;99.90;;;;;;5077446;28;20590;-67
2021/12/20 05:07:46;;;;;;;1.10;1.00;;;2.90;99.90;;;;;;5077452;28;20300;-68
2021/12/20 05:10:25;;;;;;;1.37;1.27;;;2.90;99.90;;;;;;5078166;28;20205;-68
2021/12/20 05:12:53;;;;;;;1.20;0.90;;;2.90;99.90;;;;;;5078010;28;20610;-68
2021/12/20 05:15:20;;;;;;;2.23;1.13;;;2.90;99.90;;;;;;5078136;28;20268;-69
2021/12/20 05:17:47;;;;;;;2.63;1.03;;;2.80;99.90;;;;;;5077473;28;20627;-68
2021/12/20 05:20:14;;;;;;;1.90;1.20;;;2.80;99.90;;;;;;5077557;28;20300;-67
2021/12/20 05:22:41;;;;;;;2.03;0.90;;;2.80;99.90;;;;;;5076858;28;20299;-68
2021/12/20 05:25:09;;;;;;;3.00;1.83;;;2.80;99.90;;;;;;5076922;28;20244;-68
2021/12/20 05:27:37;;;;;;;1.20;1.10;;;2.80;99.90;;;;;;5076780;28;20248;-68
2021/12/20 05:30:06;;;;;;;1.40;1.10;;;2.80;99.90;;;;;;5076356;28;20292;-68
2021/12/20 05:32:34;;;;;;;1.20;1.10;;;2.80;99.90;;;;;;5077419;28;20209;-68
2021/12/20 05:35:01;;;;;;;1.57;1.17;;;2.80;99.90;;;;;;5078956;28;20483;-67
2021/12/20 05:37:28;;;;;;;2.37;1.30;;;2.90;99.90;;;;;;5072341;28;21216;-67
2021/12/20 05:39:55;;;;;;;1.10;1.00;;;2.80;99.90;;;;;;5076951;28;20235;-69
2021/12/20 05:42:22;;;;;;;1.23;1.13;;;2.80;99.90;;;;;;5077294;28;20258;-67
2021/12/20 05:44:51;;;;;;;1.53;1.20;;;2.80;99.90;;;;;;5077291;28;20673;-68
2021/12/20 05:47:18;;;;;;;2.77;1.40;;;2.80;99.90;;;;;;5086506;28;20227;-68
2021/12/20 05:49:45;;;;;;;1.10;1.00;;;3.00;99.90;;;;;;5076268;28;20227;-67
2021/12/20 05:52:12;;;;;;;1.20;1.10;;;2.90;99.90;;;;;;5076585;28;20232;-66
2021/12/20 05:54:39;;;;;;;2.00;1.07;;;2.90;99.90;;;;;;5077461;28;20272;-68
2021/12/20 05:57:06;;;;;;;1.60;1.20;;;2.90;99.90;;;;;;5077315;28;20245;-68
2021/12/20 05:59:34;;;;;;;1.67;1.20;;;2.90;99.90;;;;;;5075749;28;20235;-69
2021/12/20 06:02:02;;;;;;;1.90;1.40;;;2.90;99.90;;;;;;5073892;28;20201;-68
2021/12/20 06:04:29;;;;;;;1.60;1.50;;;2.90;99.90;;;;;;5077434;28;20251;-69
2021/12/20 06:06:56;;;;;;;3.30;1.57;;;2.90;99.90;;;;;;5076232;28;20577;-68
2021/12/20 06:09:23;;;;;;;1.63;1.40;;;2.90;99.90;;;;;;5075888;28;20237;-68
2021/12/20 06:11:50;;;;;;;2.73;1.67;;;2.90;99.90;;;;;;5080729;28;20662;-67
2021/12/20 06:14:18;;;;;;;3.00;1.87;;;2.90;99.90;;;;;;5083707;28;20209;-68
2021/12/20 06:16:45;;;;;;;1.77;1.63;;;2.90;99.90;;;;;;5079778;28;20551;-68
2021/12/20 06:19:13;;;;;;;2.03;1.63;;;2.90;99.90;;;;;;5076417;28;20312;-69
2021/12/20 06:21:40;;;;;;;1.63;1.47;;;2.90;99.90;;;;;;5075376;28;20236;-68
2021/12/20 06:24:08;;;;;;;2.50;1.57;;;2.80;99.90;;;;;;5061756;28;20288;-67
2021/12/20 06:26:35;;;;;;;1.60;1.50;;;2.80;99.90;;;;;;5076246;28;20328;-68
2021/12/20 06:29:02;;;;;;;2.43;1.50;;;2.80;99.90;;;;;;5076578;28;20237;-67
2021/12/20 06:31:29;;;;;;;3.07;1.33;;;2.80;99.90;;;;;;5075283;28;20619;-68
2021/12/20 06:33:56;;;;;;;1.67;1.50;;;2.80;99.90;;;;;;5076023;28;20288;-69
2021/12/20 06:36:26;;;;;;;2.20;1.73;;;2.80;99.90;;;;;;5071978;28;20245;-69
2021/12/20 06:38:54;;;;;;;4.10;1.93;;;2.80;99.90;;;;;;5075577;28;20205;-69
2021/12/20 06:41:21;;;;;;;4.10;1.97;;;2.80;99.90;;;;;;5075183;28;20201;-68
2021/12/20 06:43:48;;;;;;;3.60;1.70;;;2.80;99.90;;;;;;5078364;28;20201;-68
2021/12/20 06:46:16;;;;;;;2.80;1.93;;;2.70;99.90;;;;;;5074697;28;20209;-67
2021/12/20 06:48:43;;;;;;;2.93;1.80;;;2.70;99.90;;;;;;5073534;28;20225;-67
2021/12/20 06:51:10;;;;;;;2.23;2.00;;;2.80;99.90;;;;;;5075010;28;20647;-67
2021/12/20 06:53:39;;;;;;;2.70;1.53;;;2.80;99.90;;;;;;5074898;28;20827;-68
2021/12/20 06:56:06;;;;;;;2.27;1.47;;;2.80;99.90;;;;;;5073836;28;20260;-67
2021/12/20 06:58:32;;;;;;;3.30;1.73;;;2.80;99.90;;;;;;5084652;28;20642;-67
2021/12/20 07:01:00;;;;;;;2.53;2.00;;;2.80;99.90;;;;;;5071952;28;20332;-68
2021/12/20 07:03:27;;;;;;;3.90;1.90;;;2.80;99.90;;;;;;5070933;28;20288;-68
2021/12/20 07:05:54;;;;;;;1.73;1.50;;;2.80;99.90;;;;;;5070778;28;20278;-68
2021/12/20 07:08:22;;;;;;;2.80;1.60;;;2.80;99.90;;;;;;5063971;28;20312;-68
2021/12/20 07:10:51;;;;;;;1.60;1.50;;;2.80;99.90;;;;;;5072015;28;20210;-68
2021/12/20 07:13:19;;;;;;;2.00;1.80;;;2.80;99.90;;;;;;5078076;28;20263;-69
2021/12/20 07:15:46;;;;;;;2.87;1.60;;;2.90;99.90;;;;;;5072503;28;20255;-67
2021/12/20 07:18:13;;;;;;;2.53;1.63;;;2.90;99.90;;;;;;5072747;28;20205;-68
2021/12/20 07:20:40;;;;;;;1.63;1.53;;;2.90;99.90;;;;;;5072638;28;20244;-67
2021/12/20 07:23:06;;;;;;;2.03;1.70;;;2.90;99.90;;;;;;5072740;28;20264;-67
2021/12/20 07:25:33;;;;;;;1.97;1.43;;;2.90;99.90;;;;;;5071176;28;20275;-67
2021/12/20 07:28:02;;;;;;;1.60;1.30;;;2.90;99.90;;;;;;5061187;28;20682;-67
2021/12/20 07:30:30;;;;;;;3.33;1.23;;;3.00;99.90;;;;;;5071486;28;20201;-68
2021/12/20 07:32:57;;;;;;;2.10;1.80;;;3.00;99.90;;;;;;5072993;28;20288;-68
2021/12/20 07:35:25;;;;;;;1.43;1.33;;;3.00;99.90;;;;;;5067959;28;20232;-67
2021/12/20 07:37:54;;;;;;;3.07;1.90;;;3.10;99.90;;;;;;5071682;28;20686;-67
2021/12/20 07:40:21;;;;;;;2.53;1.63;;;3.10;99.90;;;;;;5071602;28;20205;-68
2021/12/20 07:42:48;;;;;;;3.00;2.03;;;3.10;99.90;;;;;;5071810;28;20277;-68
2021/12/20 07:45:17;;;;;;;2.73;1.80;;;3.10;99.90;;;;;;5073713;28;20248;-68
2021/12/20 07:47:44;;;;;;;3.73;2.00;;;3.10;99.90;;;;;;5072679;28;20224;-69
2021/12/20 07:50:11;;;;;;;2.53;2.27;;;3.10;99.90;;;;;;5079241;28;20658;-69
2021/12/20 07:52:39;;;;;;;3.30;2.67;;;3.10;99.90;;;;;;5072796;28;20236;-67
2021/12/20 07:55:07;;;;;;;2.30;2.10;;;3.20;99.90;;;;;;5073034;28;20209;-67
2021/12/20 07:57:34;;;;;;;2.20;1.90;;;3.20;99.90;;;;;;5071337;28;20765;-67
2021/12/20 08:00:01;;;;;;;2.00;1.67;;;3.50;99.90;;;;;;5071680;28;20285;-66
2021/12/20 08:02:29;;;;;;;3.37;1.90;;;3.30;99.90;;;;;;5064174;28;20230;-67
2021/12/20 08:04:56;;;;;;;2.40;2.10;;;3.30;99.90;;;;;;5068821;28;20224;-67
2021/12/20 08:07:23;;;;;;;2.90;2.20;;;3.40;99.90;;;;;;5072929;28;20224;-66
2021/12/20 08:09:51;;;;;;;8.00;1.70;;;3.40;99.90;;;;;;5071819;28;20655;-65
2021/12/20 08:12:18;;;;;;;2.80;1.77;;;3.40;99.90;;;;;;5073308;28;20236;-67
2021/12/20 08:14:46;;;;;;;2.23;1.70;;;3.40;99.90;;;;;;5077115;28;20860;-68
2021/12/20 08:17:13;;;;;;;2.20;1.97;;;3.40;99.90;;;;;;5077324;28;20201;-68
2021/12/20 08:19:41;;;;;;;2.17;1.90;;;3.40;99.90;;;;;;5077245;28;20292;-68
2021/12/20 08:22:08;;;;;;;3.70;1.77;;;3.40;99.90;;;;;;5077378;28;20221;-68
2021/12/20 08:24:35;;;;;;;2.53;1.60;;;3.30;99.90;;;;;;5081601;28;20321;-69
2021/12/20 08:27:02;;;;;;;2.03;1.80;;;3.30;99.90;;;;;;5073144;28;20233;-69
2021/12/20 08:29:29;;;;;;;2.60;1.90;;;3.30;99.90;;;;;;5074575;28;20592;-68
2021/12/20 08:32:01;;;;;;;2.20;1.87;;;3.30;99.90;;;;;;5075166;28;20322;-68
2021/12/20 08:34:28;;;;;;;2.90;1.70;;;3.30;99.90;;;;;;5073783;28;20254;-65
2021/12/20 08:36:57;;;;;;;4.67;2.30;;;3.30;99.90;;;;;;5075084;28;20208;-65
2021/12/20 08:39:24;;;;;;;2.43;2.20;;;3.20;99.90;;;;;;5066968;28;20292;-66
2021/12/20 08:41:51;;;;;;;2.47;2.07;;;3.20;99.90;;;;;;5079200;28;20232;-66
2021/12/20 08:44:18;;;;;;;2.00;1.80;;;3.20;99.90;;;;;;5083788;28;20258;-69
2021/12/20 08:46:45;;;;;;;2.60;1.83;;;3.10;99.90;;;;;;5074660;28;20292;-66
2021/12/20 08:49:12;;;;;;;3.80;1.90;;;3.10;99.90;;;;;;5073798;28;20303;-66
2021/12/20 08:51:39;;;;;;;3.20;1.83;;;3.00;99.90;;;;;;5074339;28;20296;-66
2021/12/20 08:54:07;;;;;;;2.63;1.87;;;3.00;99.90;;;;;;5073896;28;20248;-67
2021/12/20 08:56:35;;;;;;;2.40;1.60;;;3.00;99.90;;;;;;5074591;28;20721;-67
2021/12/20 08:59:02;;;;;;;2.30;1.80;;;2.90;99.90;;;;;;5082653;28;20265;-67
2021/12/20 09:01:31;;;;;;;2.20;1.73;;;2.90;99.90;;;;;;5080488;28;20189;-68
2021/12/20 09:03:59;;;;;;;2.77;1.80;;;2.90;99.90;;;;;;5077565;28;20220;-67
2021/12/20 09:06:27;;;;;;;2.90;2.00;;;2.90;99.90;;;;;;5074775;28;20863;-67
2021/12/20 09:08:55;;;;;;;3.60;1.90;;;2.90;99.90;;;;;;5070176;28;20218;-67
2021/12/20 09:11:25;;;;;;;5.10;1.77;;;2.90;99.90;;;;;;5074919;28;20201;-68
2021/12/20 09:13:53;;;;;;;3.13;1.63;;;2.80;99.90;;;;;;5074211;28;20209;-68
2021/12/20 09:16:20;;;;;;;3.33;1.80;;;2.90;99.90;;;;;;5074781;28;20201;-68
2021/12/20 09:18:48;;;;;;;2.60;1.30;;;2.80;99.90;;;;;;5074450;28;20292;-69
2021/12/20 09:21:15;;;;;;;1.80;1.33;;;2.80;99.90;;;;;;5075141;28;20316;-67
2021/12/20 09:23:43;;;;;;;1.53;1.20;;;2.70;99.90;;;;;;5072497;28;20930;-68
2021/12/20 09:26:10;;;;;;;1.07;0.97;;;2.70;99.90;;;;;;5078189;28;20233;-69
2021/12/20 09:28:39;;;;;;;1.30;1.00;;;2.70;99.90;;;;;;5076770;28;20549;-68
2021/12/20 09:31:08;;;;;;;1.97;1.50;;;2.70;99.90;;;;;;5077059;28;20269;-70
2021/12/20 09:33:35;;;;;;;3.67;2.00;;;2.70;99.90;;;;;;5076524;28;20201;-68
2021/12/20 09:36:03;;;;;;;1.20;1.00;;;2.70;99.90;;;;;;5074326;28;20305;-68
2021/12/20 09:38:31;;;;;;;1.03;0.70;;;2.60;99.90;;;;;;5071130;28;20291;-69
2021/12/20 09:41:15;;;;;;;1.63;1.20;;;2.60;99.90;;;;;;5076063;28;20206;-68
2021/12/20 09:43:46;;;;;;;1.03;0.93;;;2.60;99.90;;;;;;5064134;28;20237;-68
2021/12/20 09:46:14;;;;;;;2.07;1.00;;;2.60;99.90;;;;;;5081959;28;20264;-67
2021/12/20 09:48:44;;;;;;;1.57;1.17;;;2.60;99.90;;;;;;5076650;28;20316;-69
2021/12/20 09:51:12;;;;;;;1.03;0.70;;;2.60;99.90;;;;;;5081884;28;20268;-68
2021/12/20 09:53:40;;;;;;;0.80;0.60;;;2.60;99.90;;;;;;5071804;28;20229;-70
2021/12/20 09:56:08;;;;;;;0.60;0.60;;;2.50;99.90;;;;;;5077821;28;20729;-67
2021/12/20 09:58:37;;;;;;;1.83;1.07;;;2.60;99.90;;;;;;5074831;28;20757;-67
2021/12/20 10:01:07;;;;;;;3.47;1.60;;;2.60;99.90;;;;;;5074352;28;20273;-69
2021/12/20 10:03:35;;;;;;;0.77;0.70;;;2.60;99.90;;;;;;5069090;28;20317;-68
2021/12/20 10:06:02;;;;;;;1.73;0.90;;;2.60;99.90;;;;;;5073088;28;20235;-68
2021/12/20 10:08:33;;;;;;;0.50;0.50;;;2.60;99.90;;;;;;5073461;28;20264;-67
2021/12/20 10:11:03;;;;;;;0.87;0.70;;;2.70;99.90;;;;;;5073891;28;20205;-68
2021/12/20 10:13:32;;;;;;;0.73;0.70;;;2.90;99.90;;;;;;5071125;28;20217;-69
2021/12/20 10:16:01;;;;;;;2.80;1.17;;;2.90;99.90;;;;;;5075623;28;20264;-70
2021/12/20 10:18:33;;;;;;;2.20;1.37;;;3.00;99.90;;;;;;5076726;28;20229;-70
2021/12/20 10:21:01;;;;;;;1.40;0.90;;;3.10;99.90;;;;;;5071894;28;20251;-69
2021/12/20 10:23:31;;;;;;;1.40;0.90;;;3.20;99.90;;;;;;5071879;28;20217;-70
2021/12/20 10:25:59;;;;;;;1.20;0.93;;;3.90;99.90;;;;;;5074307;28;20320;-70
2021/12/20 10:28:31;;;;;;;1.60;1.00;;;5.00;99.90;;;;;;5074146;28;20327;-71
2021/12/20 10:31:00;;;;;;;1.40;1.03;;;6.40;99.90;;;;;;5068159;28;20221;-70
2021/12/20 10:33:29;;;;;;;3.63;1.30;;;7.20;99.90;;;;;;5071871;28;20204;-71
2021/12/20 10:35:57;;;;;;;2.50;1.50;;;7.70;99.90;;;;;;5069591;28;20302;-69
2021/12/20 10:38:29;;;;;;;2.93;1.50;;;8.30;99.90;;;;;;5071018;28;20358;-72
2021/12/20 10:40:59;;;;;;;2.17;0.90;;;9.10;99.90;;;;;;5080255;28;20201;-70
2021/12/20 10:43:29;;;;;;;2.53;1.33;;;10.20;99.90;;;;;;5075873;28;20192;-70
2021/12/20 10:45:57;;;;;;;1.97;1.43;;;11.40;99.90;;;;;;5075862;28;20255;-70
2021/12/20 10:48:33;;;;;;;2.33;1.23;;;11.40;96.50;;;;;;5073266;28;20227;-71
2021/12/20 10:51:02;;;;;;;1.30;0.90;;;13.10;98.90;;;;;;5074850;28;20670;-69
2021/12/20 10:53:29;;;;;;;1.00;0.80;;;15.70;86.70;;;;;;5078100;28;20208;-69
2021/12/20 10:55:59;;;;;;;0.73;0.63;;;17.20;68.80;;;;;;5072903;28;20289;-70
2021/12/20 10:58:30;;;;;;;1.53;0.70;;;17.80;56.60;;;;;;5073101;28;20288;-70
2021/12/20 11:04:14;;;;;;;2.00;0.50;;;19.70;49.10;;;;;;5046038;28;20201;-70
2021/12/20 11:09:26;;;;;;;0.40;0.33;;;17.40;43.10;;;;;;5072972;28;20213;-71
2021/12/20 11:11:56;;;;;;;1.40;0.70;;;15.50;45.20;;;;;;5076281;28;20292;-72
2021/12/20 11:14:27;;;;;;;1.10;0.67;;;14.50;50.20;;;;;;5067246;28;20295;-74
2021/12/20 11:16:57;;;;;;;0.73;0.60;;;15.70;54.80;;;;;;5072671;28;20284;-71
2021/12/20 11:19:27;;;;;;;0.50;0.40;;;16.60;48.60;;;;;;5073032;28;20579;-71
2021/12/20 11:22:04;;;;;;;0.90;0.47;;;15.90;44.80;;;;;;5072561;28;20241;-73
2021/12/20 11:24:34;;;;;;;0.60;0.53;;;14.80;43.90;;;;;;5072503;28;20212;-70
2021/12/20 11:27:04;;;;;;;0.50;0.47;;;14.10;45.80;;;;;;5073690;28;20261;-70
2021/12/20 11:29:32;;;;;;;0.77;0.50;;;13.50;44.60;;;;;;5073817;28;20237;-70
2021/12/20 11:32:00;;;;;;;0.50;0.50;;;12.80;45.70;;;;;;5074194;28;20244;-71
2021/12/20 11:34:30;;;;;;;2.00;0.53;;;12.40;47.00;;;;;;5075772;28;20712;-71
2021/12/20 11:36:58;;;;;;;0.70;0.50;;;12.10;47.30;;;;;;5072288;28;20216;-71
2021/12/20 11:39:26;;;;;;;0.70;0.60;;;11.60;47.50;;;;;;5078578;28;20248;-72
2021/12/20 11:41:53;;;;;;;0.97;0.60;;;11.00;48.50;;;;;;5074363;28;20225;-71
2021/12/20 11:44:22;;;;;;;2.00;0.73;;;10.10;49.20;;;;;;5076997;28;20205;-72
2021/12/20 11:47:11;;;;;;;0.70;0.50;;;9.20;51.70;;;;;;5070397;28;20209;-70
2021/12/20 11:49:39;;;;;;;0.80;0.60;;;8.40;53.30;;;;;;5068086;28;20213;-70
2021/12/20 11:52:14;;;;;;;1.07;0.47;;;7.80;54.30;;;;;;5071526;28;20724;-70
2021/12/20 11:54:49;;;;;;;1.30;1.20;;;7.30;56.00;;;;;;5072514;28;20204;-71
2021/12/20 11:57:40;;;;;;;3.13;0.93;;;7.00;57.00;;;;;;5071355;28;20319;-71
2021/12/20 12:00:32;;;;;;;0.87;0.63;;;6.60;57.50;;;;;;5071023;28;20316;-70
2021/12/20 12:03:18;;;;;;;1.90;0.70;;;6.20;58.20;;;;;;5068940;28;20498;-70
2021/12/20 12:05:50;;;;;;;1.40;0.80;;;5.80;59.20;;;;;;5071556;28;20293;-69
2021/12/20 12:08:39;;;;;;;0.60;0.60;;;5.50;59.60;;;;;;5070192;28;20220;-73
2021/12/20 12:11:29;;;;;;;0.77;0.70;;;5.10;60.10;;;;;;5066927;28;20737;-70
2021/12/20 12:17:03;;;;;;;1.33;0.60;;;4.30;61.90;;;;;;5068552;28;20214;-70
2021/12/20 12:19:42;;;;;;;1.50;0.70;;;4.00;62.60;;;;;;5072649;28;20252;-71
2021/12/20 12:22:35;;;;;;;2.00;0.80;;;3.80;63.70;;;;;;5072796;28;20233;-70
2021/12/20 12:25:07;;;;;;;1.23;0.90;;;3.60;64.70;;;;;;5069422;28;20287;-70
2021/12/20 12:27:35;;;;;;;1.10;0.80;;;3.50;65.90;;;;;;5064347;28;20206;-70
2021/12/20 12:30:34;;;;;;;1.13;0.90;;;3.30;66.60;;;;;;5072387;28;20228;-72
2021/12/20 12:33:24;;;;;;;2.00;0.90;;;3.20;67.30;;;;;;5061484;28;20254;-70
2021/12/20 12:35:57;;;;;;;1.37;1.00;;;3.00;68.40;;;;;;5072403;28;20219;-70
2021/12/20 12:38:30;;;;;;;1.10;1.00;;;3.00;69.60;;;;;;5065364;28;20289;-72
2021/12/20 12:41:23;;;;;;;2.17;1.20;;;3.00;71.70;;;;;;5072191;28;20568;-72
2021/12/20 12:44:19;;;;;;;1.20;0.83;;;3.00;73.40;;;;;;5071247;28;20296;-70
2021/12/20 12:47:08;;;;;;;1.80;0.90;;;3.10;74.20;;;;;;5073364;28;20207;-70
2021/12/20 12:49:41;;;;;;;2.17;1.10;;;3.00;75.00;;;;;;5082871;28;20229;-69
2021/12/20 12:52:29;;;;;;;1.00;0.83;;;2.90;74.60;;;;;;5084774;28;20233;-70
2021/12/20 12:55:02;;;;;;;1.03;0.70;;;2.80;74.20;;;;;;5080375;28;20282;-71
2021/12/20 12:57:34;;;;;;;0.77;0.77;;;2.70;73.70;;;;;;5073132;28;20229;-68
2021/12/20 13:00:11;;;;;;;0.90;0.80;;;2.50;73.50;;;;;;5074954;28;20653;-69
2021/12/20 13:02:40;;;;;;;1.67;0.90;;;2.40;73.50;;;;;;5074612;28;20288;-68
2021/12/20 13:05:13;;;;;;;1.27;0.70;;;2.30;73.80;;;;;;5073479;28;20632;-70
2021/12/20 13:07:46;;;;;;;1.20;0.50;;;2.20;74.20;;;;;;5072786;28;20205;-68
2021/12/20 13:10:16;;;;;;;1.13;0.80;;;2.10;74.30;;;;;;5074400;28;20314;-69
2021/12/20 13:12:49;;;;;;;0.80;0.80;;;2.00;74.30;;;;;;5074722;28;20221;-68
2021/12/20 13:15:22;;;;;;;1.20;0.97;;;2.00;74.70;;;;;;5073586;28;20211;-69
2021/12/20 13:17:51;;;;;;;0.87;0.80;;;1.90;74.90;;;;;;5074441;28;20197;-70
2021/12/20 13:20:25;;;;;;;1.60;0.93;;;1.80;75.30;;;;;;5073761;28;20213;-69
2021/12/20 13:23:02;;;;;;;2.23;1.00;;;1.80;75.80;;;;;;5074011;28;20204;-70
2021/12/20 13:25:39;;;;;;;1.57;1.00;;;1.80;76.60;;;;;;5072745;28;20229;-69